createdAt,value
2023-01-01T00:00:45.974Z,10.31
2023-01-01T00:01:45.888Z,10.25
2023-01-01T00:02:45.713Z,10.3
2023-01-01T00:03:45.809Z,10.24
2023-01-01T00:04:45.739Z,10.27
2023-01-01T00:05:45.713Z,10.18
2023-01-01T00:06:45.755Z,10.2
2023-01-01T00:07:45.749Z,10.17
2023-01-01T00:08:45.706Z,10.28
2023-01-01T00:09:45.747Z,10.23
2023-01-01T00:10:45.749Z,10.1
2023-01-01T00:11:45.754Z,10.09
2023-01-01T00:12:45.756Z,10.1
2023-01-01T00:13:45.774Z,10.15
2023-01-01T00:14:45.771Z,10.1
2023-01-01T00:15:45.843Z,9.95
2023-01-01T00:16:46.238Z,10.05
2023-01-01T00:17:45.748Z,10.05
2023-01-01T00:18:45.737Z,10
2023-01-01T00:19:45.751Z,10.05
2023-01-01T00:20:45.774Z,10.03
2023-01-01T00:21:45.731Z,9.95
2023-01-01T00:22:59.488Z,9.95
2023-01-01T00:23:45.739Z,9.87
2023-01-01T00:24:45.782Z,9.91
2023-01-01T00:25:45.757Z,10.02
2023-01-01T00:26:45.946Z,9.91
2023-01-01T00:27:48.775Z,9.92
2023-01-01T00:28:45.770Z,9.87
2023-01-01T00:29:45.796Z,9.84
2023-01-01T00:30:45.754Z,9.94
2023-01-01T00:31:45.886Z,9.88
2023-01-01T00:32:57.241Z,9.77
2023-01-01T00:33:45.608Z,9.74
2023-01-01T00:34:45.796Z,9.7
2023-01-01T00:35:45.762Z,9.73
2023-01-01T00:36:45.763Z,9.82
2023-01-01T00:37:51.370Z,9.7
2023-01-01T00:38:48.818Z,9.77
2023-01-01T00:39:45.789Z,9.73
2023-01-01T00:40:45.786Z,9.67
2023-01-01T00:41:45.753Z,9.81
2023-01-01T00:42:45.824Z,9.7
2023-01-01T00:43:48.593Z,9.69
2023-01-01T00:44:45.845Z,9.72
2023-01-01T00:45:45.901Z,9.74
2023-01-01T00:46:45.776Z,9.7
2023-01-01T00:47:45.814Z,9.63
2023-01-01T00:48:45.782Z,9.64
2023-01-01T00:49:48.627Z,9.56
2023-01-01T00:50:45.775Z,9.7
2023-01-01T00:51:45.795Z,9.67
2023-01-01T00:52:45.776Z,9.67
2023-01-01T00:53:45.789Z,9.67
2023-01-01T00:54:47.710Z,9.63
2023-01-01T00:55:45.798Z,9.56
2023-01-01T00:56:45.821Z,9.56
2023-01-01T00:57:46.018Z,9.7
2023-01-01T00:58:45.836Z,9.52
2023-01-01T00:59:45.850Z,9.51
2023-01-01T01:00:49.009Z,9.44
2023-01-01T01:01:46.268Z,9.48
2023-01-01T01:02:46.668Z,9.49
2023-01-01T01:03:45.797Z,9.49
2023-01-01T01:04:45.855Z,9.49
2023-01-01T01:05:48.932Z,9.51
2023-01-01T01:06:45.813Z,9.52
2023-01-01T01:07:45.864Z,9.44
2023-01-01T01:08:45.824Z,9.44
2023-01-01T01:09:45.913Z,9.45
2023-01-01T01:10:45.882Z,9.3
2023-01-01T01:11:45.809Z,9.29
2023-01-01T01:12:45.826Z,9.3
2023-01-01T01:13:45.827Z,9.31
2023-01-01T01:14:45.895Z,9.31
2023-01-01T01:15:45.822Z,9.34
2023-01-01T01:16:49.055Z,9.39
2023-01-01T01:17:45.827Z,9.47
2023-01-01T01:18:45.825Z,9.47
2023-01-01T01:19:45.872Z,9.44
2023-01-01T01:20:45.830Z,9.45
2023-01-01T01:21:45.850Z,9.44
2023-01-01T01:22:45.836Z,9.37
2023-01-01T01:23:45.830Z,9.44
2023-01-01T01:24:45.871Z,9.42
2023-01-01T01:25:45.837Z,9.42
2023-01-01T01:26:45.907Z,9.42
2023-01-01T01:27:48.605Z,9.51
2023-01-01T01:28:56.573Z,9.48
2023-01-01T01:29:45.879Z,9.54
2023-01-01T01:30:46.036Z,9.49
2023-01-01T01:31:45.852Z,9.39
2023-01-01T01:32:45.836Z,9.45
2023-01-01T01:33:45.871Z,9.36
2023-01-01T01:34:45.903Z,9.36
2023-01-01T01:35:45.845Z,9.31
2023-01-01T01:36:45.864Z,9.31
2023-01-01T01:37:45.844Z,9.37
2023-01-01T01:38:48.741Z,9.27
2023-01-01T01:39:49.050Z,9.27
2023-01-01T01:40:45.866Z,9.3
2023-01-01T01:41:45.913Z,9.29
2023-01-01T01:42:45.939Z,9.24
2023-01-01T01:43:45.872Z,9.24
2023-01-01T01:44:45.912Z,9.29
2023-01-01T01:45:46.003Z,9.29
2023-01-01T01:46:45.938Z,9.27
2023-01-01T01:47:45.880Z,9.29
2023-01-01T01:48:45.883Z,9.27
2023-01-01T01:49:47.427Z,9.27
2023-01-01T01:50:45.873Z,9.29
2023-01-01T01:51:45.892Z,9.3
2023-01-01T01:52:45.869Z,9.18
2023-01-01T01:53:45.877Z,9.26
2023-01-01T01:54:45.911Z,9.16
2023-01-01T01:55:45.890Z,9.34
2023-01-01T01:56:45.890Z,9.3
2023-01-01T01:57:45.883Z,9.34
2023-01-01T01:58:46.062Z,9.27
2023-01-01T01:59:45.926Z,9.31
2023-01-01T02:00:48.905Z,9.3
2023-01-01T02:01:46.390Z,9.27
2023-01-01T02:02:46.599Z,9.3
2023-01-01T02:03:45.873Z,9.24
2023-01-01T02:04:45.933Z,9.3
2023-01-01T02:05:45.903Z,9.27
2023-01-01T02:06:45.903Z,9.26
2023-01-01T02:07:45.898Z,9.27
2023-01-01T02:08:45.905Z,9.29
2023-01-01T02:09:45.920Z,9.21
2023-01-01T02:10:45.941Z,9.18
2023-01-01T02:11:48.668Z,9.15
2023-01-01T02:12:45.940Z,9.15
2023-01-01T02:13:45.893Z,9.13
2023-01-01T02:14:46.011Z,9.16
2023-01-01T02:15:46.168Z,9.18
2023-01-01T02:16:45.927Z,9.21
2023-01-01T02:17:45.948Z,9.13
2023-01-01T02:18:45.923Z,9.05
2023-01-01T02:19:45.992Z,9.11
2023-01-01T02:20:46.013Z,9.09
2023-01-01T02:21:45.923Z,9.11
2023-01-01T02:22:49.000Z,9.13
2023-01-01T02:23:45.910Z,9.16
2023-01-01T02:24:46.976Z,9.13
2023-01-01T02:25:45.925Z,9.11
2023-01-01T02:26:45.977Z,9.12
2023-01-01T02:27:45.956Z,9.11
2023-01-01T02:28:45.991Z,9.09
2023-01-01T02:29:45.953Z,9.08
2023-01-01T02:30:46.242Z,8.99
2023-01-01T02:31:46.224Z,9.05
2023-01-01T02:32:45.964Z,8.99
2023-01-01T02:33:45.940Z,8.93
2023-01-01T02:34:46.001Z,8.97
2023-01-01T02:35:45.961Z,9.02
2023-01-01T02:36:45.976Z,8.93
2023-01-01T02:37:45.957Z,9.09
2023-01-01T02:38:46.022Z,9
2023-01-01T02:39:45.942Z,9.03
2023-01-01T02:40:45.952Z,9.09
2023-01-01T02:41:45.982Z,8.99
2023-01-01T02:42:46.108Z,9.15
2023-01-01T02:43:45.958Z,9.05
2023-01-01T02:44:45.992Z,9.13
2023-01-01T02:45:45.971Z,8.95
2023-01-01T02:46:46.036Z,8.97
2023-01-01T02:47:45.951Z,8.95
2023-01-01T02:48:46.045Z,8.82
2023-01-01T02:49:45.977Z,8.81
2023-01-01T02:50:46.011Z,8.89
2023-01-01T02:51:45.980Z,8.89
2023-01-01T02:52:45.975Z,8.84
2023-01-01T02:53:45.993Z,8.81
2023-01-01T02:54:49.137Z,8.87
2023-01-01T02:55:45.990Z,8.86
2023-01-01T02:56:45.985Z,8.78
2023-01-01T02:57:46.037Z,8.86
2023-01-01T02:58:46.043Z,8.71
2023-01-01T02:59:46.013Z,8.71
2023-01-01T03:00:46.035Z,8.82
2023-01-01T03:01:46.356Z,8.89
2023-01-01T03:02:53.939Z,8.78
2023-01-01T03:03:46.342Z,8.81
2023-01-01T03:04:45.990Z,8.82
2023-01-01T03:05:49.121Z,8.77
2023-01-01T03:06:46.015Z,8.69
2023-01-01T03:07:45.996Z,8.74
2023-01-01T03:08:46.029Z,8.78
2023-01-01T03:09:46.024Z,8.75
2023-01-01T03:10:46.736Z,8.74
2023-01-01T03:11:46.020Z,8.63
2023-01-01T03:12:46.248Z,8.68
2023-01-01T03:13:46.023Z,8.71
2023-01-01T03:14:45.990Z,8.81
2023-01-01T03:15:46.258Z,8.71
2023-01-01T03:16:48.785Z,8.71
2023-01-01T03:17:46.052Z,8.78
2023-01-01T03:18:46.093Z,8.74
2023-01-01T03:19:46.017Z,8.84
2023-01-01T03:20:46.041Z,8.75
2023-01-01T03:21:48.849Z,8.75
2023-01-01T03:22:48.317Z,8.75
2023-01-01T03:23:53.876Z,8.77
2023-01-01T03:24:46.040Z,8.64
2023-01-01T03:25:46.058Z,8.64
2023-01-01T03:26:46.060Z,8.49
2023-01-01T03:27:49.027Z,8.53
2023-01-01T03:28:46.035Z,8.61
2023-01-01T03:29:46.027Z,8.53
2023-01-01T03:30:46.072Z,8.49
2023-01-01T03:31:46.053Z,8.45
2023-01-01T03:32:48.812Z,8.45
2023-01-01T03:33:46.055Z,8.49
2023-01-01T03:34:46.081Z,8.39
2023-01-01T03:35:46.142Z,8.35
2023-01-01T03:36:48.538Z,8.44
2023-01-01T03:37:46.051Z,8.41
2023-01-01T03:38:49.015Z,8.46
2023-01-01T03:39:46.051Z,8.42
2023-01-01T03:40:46.085Z,8.38
2023-01-01T03:41:46.046Z,8.38
2023-01-01T03:42:46.122Z,8.21
2023-01-01T03:43:49.176Z,8.32
2023-01-01T03:44:46.066Z,8.35
2023-01-01T03:45:46.112Z,8.34
2023-01-01T03:46:46.275Z,8.35
2023-01-01T03:47:46.061Z,8.41
2023-01-01T03:48:46.055Z,8.38
2023-01-01T03:49:46.073Z,8.28
2023-01-01T03:50:46.130Z,8.34
2023-01-01T03:51:46.073Z,8.32
2023-01-01T03:52:46.088Z,8.42
2023-01-01T03:53:46.114Z,8.35
2023-01-01T03:54:52.430Z,8.24
2023-01-01T03:55:46.090Z,8.35
2023-01-01T03:56:46.071Z,8.34
2023-01-01T03:57:46.080Z,8.27
2023-01-01T03:58:46.094Z,8.27
2023-01-01T03:59:46.090Z,8.41
2023-01-01T04:00:46.096Z,8.32
2023-01-01T04:01:46.420Z,8.41
2023-01-01T04:02:46.449Z,8.39
2023-01-01T04:03:46.271Z,8.36
2023-01-01T04:04:46.086Z,8.27
2023-01-01T04:05:47.494Z,8.38
2023-01-01T04:06:46.163Z,8.38
2023-01-01T04:08:46.071Z,8.44
2023-01-01T04:09:46.135Z,8.21
2023-01-01T04:10:46.114Z,8.21
2023-01-01T04:11:46.078Z,8.31
2023-01-01T04:12:46.101Z,8.23
2023-01-01T04:13:46.121Z,8.2
2023-01-01T04:14:46.127Z,8.17
2023-01-01T04:15:46.164Z,8.16
2023-01-01T04:16:49.158Z,8.2
2023-01-01T04:17:46.085Z,8.18
2023-01-01T04:18:46.119Z,8.2
2023-01-01T04:19:51.580Z,8.14
2023-01-01T04:20:46.115Z,8.16
2023-01-01T04:21:46.108Z,8.17
2023-01-01T04:22:46.172Z,8.09
2023-01-01T04:23:46.126Z,8.26
2023-01-01T04:24:46.125Z,8.2
2023-01-01T04:25:46.322Z,8.24
2023-01-01T04:26:46.130Z,8.23
2023-01-01T04:27:49.005Z,8.31
2023-01-01T04:28:46.105Z,8.2
2023-01-01T04:29:46.147Z,8.18
2023-01-01T04:30:45.639Z,8.27
2023-01-01T04:31:46.130Z,8.17
2023-01-01T04:32:46.117Z,8.09
2023-01-01T04:33:46.124Z,8.24
2023-01-01T04:34:46.134Z,8.23
2023-01-01T04:35:46.109Z,8.16
2023-01-01T04:36:46.277Z,8.21
2023-01-01T04:37:46.203Z,8.17
2023-01-01T04:38:49.340Z,8.2
2023-01-01T04:39:46.147Z,8.2
2023-01-01T04:40:46.123Z,8.21
2023-01-01T04:41:46.176Z,8.2
2023-01-01T04:42:46.178Z,8.2
2023-01-01T04:43:46.133Z,8.32
2023-01-01T04:44:46.155Z,8.24
2023-01-01T04:45:46.275Z,8.34
2023-01-01T04:46:46.159Z,8.2
2023-01-01T04:47:46.287Z,8.18
2023-01-01T04:48:46.145Z,8.26
2023-01-01T04:49:54.888Z,8.31
2023-01-01T04:50:46.147Z,8.36
2023-01-01T04:51:46.149Z,8.31
2023-01-01T04:52:46.130Z,8.34
2023-01-01T04:53:46.166Z,8.28
2023-01-01T04:54:46.185Z,8.36
2023-01-01T04:55:46.159Z,8.38
2023-01-01T04:56:46.196Z,8.35
2023-01-01T04:57:46.195Z,8.52
2023-01-01T04:58:46.250Z,8.63
2023-01-01T04:59:46.197Z,8.72
2023-01-01T05:00:46.253Z,8.87
2023-01-01T05:01:46.801Z,8.97
2023-01-01T05:02:46.443Z,9.16
2023-01-01T05:03:46.160Z,9.3
2023-01-01T05:04:46.173Z,9.27
2023-01-01T05:05:53.869Z,9.33
2023-01-01T05:06:46.186Z,9.33
2023-01-01T05:07:46.158Z,9.31
2023-01-01T05:08:46.162Z,9.26
2023-01-01T05:09:46.222Z,9.22
2023-01-01T05:10:46.251Z,9.18
2023-01-01T05:11:46.162Z,9.24
2023-01-01T05:12:46.170Z,9.19
2023-01-01T05:13:46.236Z,9.24
2023-01-01T05:14:46.205Z,9.18
2023-01-01T05:15:46.183Z,9.11
2023-01-01T05:16:46.636Z,9.05
2023-01-01T05:17:46.171Z,9.02
2023-01-01T05:18:46.238Z,8.99
2023-01-01T05:19:46.193Z,9.09
2023-01-01T05:20:46.247Z,9
2023-01-01T05:21:49.216Z,8.97
2023-01-01T05:22:46.209Z,8.9
2023-01-01T05:23:46.260Z,8.86
2023-01-01T05:24:46.201Z,8.9
2023-01-01T05:25:46.197Z,8.89
2023-01-01T05:26:46.265Z,8.89
2023-01-01T05:27:46.194Z,8.79
2023-01-01T05:28:46.258Z,8.82
2023-01-01T05:29:46.242Z,8.89
2023-01-01T05:30:46.208Z,8.92
2023-01-01T05:31:46.631Z,8.86
2023-01-01T05:32:48.998Z,8.86
2023-01-01T05:33:46.226Z,8.78
2023-01-01T05:34:46.221Z,8.75
2023-01-01T05:35:46.208Z,8.89
2023-01-01T05:36:46.254Z,8.78
2023-01-01T05:37:48.971Z,8.78
2023-01-01T05:38:46.239Z,8.82
2023-01-01T05:39:46.216Z,8.75
2023-01-01T05:40:46.235Z,8.82
2023-01-01T05:41:46.259Z,8.75
2023-01-01T05:42:46.268Z,8.71
2023-01-01T05:43:49.045Z,8.71
2023-01-01T05:44:46.253Z,8.75
2023-01-01T05:45:46.424Z,8.72
2023-01-01T05:46:46.270Z,8.46
2023-01-01T05:47:46.226Z,8.57
2023-01-01T05:48:49.338Z,8.56
2023-01-01T05:49:46.259Z,8.59
2023-01-01T05:50:46.236Z,8.63
2023-01-01T05:51:46.250Z,8.61
2023-01-01T05:52:46.244Z,8.53
2023-01-01T05:53:46.248Z,8.53
2023-01-01T05:54:49.138Z,8.39
2023-01-01T05:55:46.261Z,8.39
2023-01-01T05:56:46.262Z,8.38
2023-01-01T05:57:46.234Z,8.44
2023-01-01T05:58:46.307Z,8.45
2023-01-01T05:59:49.327Z,8.38
2023-01-01T06:00:46.240Z,8.35
2023-01-01T06:01:50.549Z,8.38
2023-01-01T06:02:46.457Z,8.27
2023-01-01T06:03:46.290Z,8.28
2023-01-01T06:04:46.406Z,8.24
2023-01-01T06:05:49.289Z,8.26
2023-01-01T06:06:46.308Z,8.27
2023-01-01T06:07:52.715Z,8.26
2023-01-01T06:08:46.292Z,8.23
2023-01-01T06:09:46.263Z,8.27
2023-01-01T06:10:49.028Z,8.31
2023-01-01T06:11:46.295Z,8.24
2023-01-01T06:12:46.285Z,8.18
2023-01-01T06:13:46.277Z,8.26
2023-01-01T06:14:46.350Z,8.18
2023-01-01T06:15:46.275Z,8.17
2023-01-01T06:16:46.519Z,8.08
2023-01-01T06:17:46.305Z,8.17
2023-01-01T06:18:46.304Z,8.18
2023-01-01T06:19:46.293Z,8.13
2023-01-01T06:20:46.283Z,8.08
2023-01-01T06:21:50.488Z,8.11
2023-01-01T06:22:46.287Z,8.05
2023-01-01T06:23:46.288Z,8.14
2023-01-01T06:24:46.304Z,8.06
2023-01-01T06:25:46.300Z,8.08
2023-01-01T06:26:46.320Z,7.95
2023-01-01T06:27:46.348Z,7.91
2023-01-01T06:28:46.299Z,8.05
2023-01-01T06:29:46.291Z,7.95
2023-01-01T06:30:46.484Z,7.93
2023-01-01T06:31:46.331Z,8.01
2023-01-01T06:32:49.179Z,8.05
2023-01-01T06:33:46.333Z,8.08
2023-01-01T06:34:46.332Z,8.02
2023-01-01T06:35:46.311Z,8.02
2023-01-01T06:36:47.273Z,8.06
2023-01-01T06:37:46.319Z,8.09
2023-01-01T06:38:46.351Z,8.03
2023-01-01T06:39:46.318Z,7.99
2023-01-01T06:40:46.306Z,7.99
2023-01-01T06:41:46.349Z,7.98
2023-01-01T06:42:46.318Z,7.87
2023-01-01T06:43:49.594Z,7.98
2023-01-01T06:44:46.312Z,8.02
2023-01-01T06:45:46.309Z,7.9
2023-01-01T06:46:46.588Z,7.88
2023-01-01T06:47:46.318Z,8.02
2023-01-01T06:48:46.351Z,8.03
2023-01-01T06:49:46.318Z,8.02
2023-01-01T06:50:46.335Z,7.95
2023-01-01T06:51:46.365Z,8.02
2023-01-01T06:52:46.515Z,8.02
2023-01-01T06:53:46.332Z,8.11
2023-01-01T06:54:49.363Z,7.98
2023-01-01T06:55:46.653Z,7.91
2023-01-01T06:56:46.403Z,8.03
2023-01-01T06:57:46.344Z,7.85
2023-01-01T06:58:46.343Z,7.88
2023-01-01T06:59:46.385Z,7.95
2023-01-01T07:00:46.372Z,7.9
2023-01-01T07:01:49.771Z,7.83
2023-01-01T07:02:46.905Z,7.95
2023-01-01T07:03:46.667Z,7.9
2023-01-01T07:04:46.386Z,7.67
2023-01-01T07:05:49.380Z,7.81
2023-01-01T07:06:46.418Z,7.74
2023-01-01T07:07:46.354Z,7.83
2023-01-01T07:08:46.345Z,7.74
2023-01-01T07:09:46.324Z,7.77
2023-01-01T07:10:46.379Z,7.84
2023-01-01T07:11:46.422Z,7.84
2023-01-01T07:12:46.366Z,7.7
2023-01-01T07:13:46.355Z,7.67
2023-01-01T07:14:46.403Z,7.67
2023-01-01T07:15:46.636Z,7.67
2023-01-01T07:16:49.367Z,7.81
2023-01-01T07:17:46.387Z,7.7
2023-01-01T07:18:46.410Z,7.72
2023-01-01T07:19:46.361Z,7.74
2023-01-01T07:20:46.451Z,7.78
2023-01-01T07:21:46.359Z,7.78
2023-01-01T07:22:46.368Z,7.67
2023-01-01T07:23:46.366Z,7.77
2023-01-01T07:24:46.370Z,7.8
2023-01-01T07:25:46.404Z,7.78
2023-01-01T07:26:46.370Z,7.78
2023-01-01T07:27:46.361Z,7.93
2023-01-01T07:28:46.383Z,7.93
2023-01-01T07:29:46.358Z,7.85
2023-01-01T07:30:46.640Z,7.85
2023-01-01T07:31:46.496Z,7.9
2023-01-01T07:32:46.381Z,8.02
2023-01-01T07:33:46.414Z,8.05
2023-01-01T07:34:53.409Z,8.05
2023-01-01T07:35:46.413Z,8.09
2023-01-01T07:36:46.502Z,8.13
2023-01-01T07:37:46.367Z,8.11
2023-01-01T07:38:46.388Z,8.16
2023-01-01T07:39:46.388Z,7.99
2023-01-01T07:40:46.397Z,8.2
2023-01-01T07:41:46.438Z,8.23
2023-01-01T07:42:46.418Z,8.26
2023-01-01T07:43:46.394Z,8.23
2023-01-01T07:44:46.375Z,8.28
2023-01-01T07:45:46.443Z,8.18
2023-01-01T07:46:46.653Z,8.24
2023-01-01T07:47:46.575Z,8.32
2023-01-01T07:48:49.239Z,8.26
2023-01-01T07:49:46.442Z,8.28
2023-01-01T07:50:46.431Z,8.41
2023-01-01T07:51:46.430Z,8.39
2023-01-01T07:52:46.735Z,8.42
2023-01-01T07:53:46.434Z,8.39
2023-01-01T07:54:46.438Z,8.49
2023-01-01T07:55:46.418Z,8.49
2023-01-01T07:56:46.404Z,8.46
2023-01-01T07:57:46.454Z,8.68
2023-01-01T07:58:46.625Z,8.59
2023-01-01T07:59:49.353Z,8.64
2023-01-01T08:00:46.418Z,8.61
2023-01-01T08:01:46.714Z,8.69
2023-01-01T08:02:46.993Z,8.78
2023-01-01T08:03:46.431Z,8.63
2023-01-01T08:04:49.260Z,8.81
2023-01-01T08:05:46.433Z,8.9
2023-01-01T08:06:46.463Z,8.84
2023-01-01T08:07:46.450Z,8.96
2023-01-01T08:08:46.456Z,8.92
2023-01-01T08:09:46.435Z,8.97
2023-01-01T08:10:49.191Z,9.03
2023-01-01T08:11:46.425Z,9.12
2023-01-01T08:12:46.467Z,9.15
2023-01-01T08:13:46.451Z,9.27
2023-01-01T08:14:46.452Z,9.19
2023-01-01T08:15:49.357Z,9.34
2023-01-01T08:16:46.448Z,9.33
2023-01-01T08:17:51.375Z,9.36
2023-01-01T08:18:46.445Z,9.49
2023-01-01T08:19:46.437Z,9.4
2023-01-01T08:20:46.472Z,9.54
2023-01-01T08:21:49.205Z,9.47
2023-01-01T08:22:46.487Z,9.63
2023-01-01T08:23:46.451Z,9.64
2023-01-01T08:24:46.488Z,9.67
2023-01-01T08:25:46.453Z,9.64
2023-01-01T08:26:49.226Z,9.64
2023-01-01T08:27:46.523Z,9.7
2023-01-01T08:28:48.672Z,9.77
2023-01-01T08:29:46.463Z,9.85
2023-01-01T08:30:46.489Z,9.76
2023-01-01T08:31:46.640Z,9.88
2023-01-01T08:32:49.626Z,9.85
2023-01-01T08:33:46.470Z,9.87
2023-01-01T08:34:46.464Z,10
2023-01-01T08:35:54.451Z,10.02
2023-01-01T08:36:46.479Z,10.13
2023-01-01T08:37:49.957Z,10.06
2023-01-01T08:38:46.498Z,10.15
2023-01-01T08:39:46.491Z,10.21
2023-01-01T08:40:46.527Z,10.12
2023-01-01T08:41:46.536Z,10.33
2023-01-01T08:42:46.532Z,10.24
2023-01-01T08:43:46.523Z,10.18
2023-01-01T08:44:46.514Z,10.27
2023-01-01T08:45:46.486Z,10.24
2023-01-01T08:46:46.611Z,10.31
2023-01-01T08:47:46.526Z,10.36
2023-01-01T08:48:50.768Z,10.39
2023-01-01T08:49:46.506Z,10.41
2023-01-01T08:50:46.492Z,10.38
2023-01-01T08:51:46.511Z,10.45
2023-01-01T08:52:46.543Z,10.49
2023-01-01T08:53:54.045Z,10.53
2023-01-01T08:54:46.558Z,10.51
2023-01-01T08:55:46.514Z,10.48
2023-01-01T08:56:46.521Z,10.62
2023-01-01T08:57:46.607Z,10.51
2023-01-01T08:58:46.503Z,10.58
2023-01-01T08:59:49.532Z,10.65
2023-01-01T09:00:46.556Z,10.59
2023-01-01T09:01:47.308Z,10.62
2023-01-01T09:02:46.976Z,10.48
2023-01-01T09:03:46.558Z,10.51
2023-01-01T09:04:46.527Z,10.57
2023-01-01T09:05:46.530Z,10.61
2023-01-01T09:06:46.517Z,10.58
2023-01-01T09:07:46.541Z,10.58
2023-01-01T09:08:46.627Z,10.57
2023-01-01T09:09:46.560Z,10.62
2023-01-01T09:10:49.529Z,10.53
2023-01-01T09:11:46.516Z,10.64
2023-01-01T09:12:46.562Z,10.46
2023-01-01T09:13:46.522Z,10.64
2023-01-01T09:14:46.520Z,10.57
2023-01-01T09:15:46.597Z,10.57
2023-01-01T09:16:52.163Z,10.53
2023-01-01T09:17:46.618Z,10.55
2023-01-01T09:18:46.525Z,10.61
2023-01-01T09:19:46.609Z,10.64
2023-01-01T09:20:46.546Z,10.67
2023-01-01T09:21:49.633Z,10.72
2023-01-01T09:22:46.572Z,10.8
2023-01-01T09:23:46.564Z,10.67
2023-01-01T09:24:46.590Z,10.72
2023-01-01T09:25:46.596Z,10.76
2023-01-01T09:26:46.558Z,10.86
2023-01-01T09:27:46.583Z,10.89
2023-01-01T09:28:46.594Z,10.79
2023-01-01T09:29:46.556Z,11
2023-01-01T09:30:46.578Z,10.9
2023-01-01T09:31:46.803Z,11.02
2023-01-01T09:32:49.456Z,11.07
2023-01-01T09:33:46.596Z,11.04
2023-01-01T09:34:54.897Z,11.05
2023-01-01T09:35:46.584Z,11.08
2023-01-01T09:36:46.578Z,11.18
2023-01-01T09:37:46.565Z,11.25
2023-01-01T09:38:46.582Z,11.27
2023-01-01T09:39:46.550Z,11.26
2023-01-01T09:40:54.122Z,11.37
2023-01-01T09:41:46.608Z,11.35
2023-01-01T09:42:46.566Z,11.48
2023-01-01T09:43:49.695Z,11.48
2023-01-01T09:44:46.567Z,11.43
2023-01-01T09:45:46.792Z,11.49
2023-01-01T09:46:46.583Z,11.55
2023-01-01T09:47:46.973Z,11.6
2023-01-01T09:48:46.576Z,11.71
2023-01-01T09:49:46.584Z,11.74
2023-01-01T09:50:46.635Z,11.76
2023-01-01T09:52:00.426Z,12.02
2023-01-01T09:52:46.590Z,12.15
2023-01-01T09:53:46.618Z,12.23
2023-01-01T09:54:46.589Z,12.43
2023-01-01T09:55:46.612Z,12.51
2023-01-01T09:56:46.630Z,12.55
2023-01-01T09:57:46.671Z,12.66
2023-01-01T09:58:46.640Z,12.88
2023-01-01T09:59:46.644Z,12.78
2023-01-01T10:00:47.014Z,12.88
2023-01-01T10:01:47.225Z,13.03
2023-01-01T10:02:54.073Z,13.06
2023-01-01T10:03:46.758Z,13.2
2023-01-01T10:04:46.623Z,13.13
2023-01-01T10:05:46.666Z,13.36
2023-01-01T10:06:46.616Z,13.4
2023-01-01T10:07:46.717Z,13.52
2023-01-01T10:08:46.659Z,13.52
2023-01-01T10:09:46.640Z,13.61
2023-01-01T10:10:46.643Z,13.7
2023-01-01T10:11:46.649Z,13.73
2023-01-01T10:12:46.681Z,13.68
2023-01-01T10:13:46.746Z,13.76
2023-01-01T10:14:46.706Z,13.85
2023-01-01T10:15:49.751Z,13.83
2023-01-01T10:16:46.834Z,13.86
2023-01-01T10:17:46.670Z,13.94
2023-01-01T10:18:46.648Z,14.05
2023-01-01T10:19:46.649Z,14
2023-01-01T10:20:46.710Z,14.05
2023-01-01T10:21:54.442Z,14.07
2023-01-01T10:22:46.650Z,14.12
2023-01-01T10:23:46.658Z,14.16
2023-01-01T10:24:46.676Z,14.22
2023-01-01T10:25:46.660Z,14.16
2023-01-01T10:26:49.415Z,14.16
2023-01-01T10:27:46.652Z,14.19
2023-01-01T10:28:46.768Z,14.18
2023-01-01T10:29:46.709Z,14.15
2023-01-01T10:30:46.675Z,14.26
2023-01-01T10:31:49.935Z,14.23
2023-01-01T10:32:46.673Z,14.3
2023-01-01T10:33:46.731Z,14.37
2023-01-01T10:34:46.672Z,14.44
2023-01-01T10:35:46.671Z,14.36
2023-01-01T10:36:46.672Z,14.38
2023-01-01T10:37:49.819Z,14.45
2023-01-01T10:38:46.712Z,14.45
2023-01-01T10:39:46.700Z,14.48
2023-01-01T10:40:46.684Z,14.44
2023-01-01T10:41:46.698Z,14.48
2023-01-01T10:42:49.596Z,14.45
2023-01-01T10:43:46.739Z,14.41
2023-01-01T10:44:46.781Z,14.44
2023-01-01T10:45:46.870Z,14.49
2023-01-01T10:46:46.715Z,14.51
2023-01-01T10:47:46.755Z,14.55
2023-01-01T10:48:49.611Z,14.52
2023-01-01T10:49:46.698Z,14.56
2023-01-01T10:50:46.764Z,14.56
2023-01-01T10:51:46.709Z,14.7
2023-01-01T10:52:46.693Z,14.59
2023-01-01T10:53:50.023Z,14.74
2023-01-01T10:54:46.701Z,14.7
2023-01-01T10:55:46.690Z,14.7
2023-01-01T10:56:46.698Z,14.71
2023-01-01T10:57:46.718Z,14.77
2023-01-01T10:58:46.756Z,14.68
2023-01-01T10:59:56.159Z,14.78
2023-01-01T11:00:46.769Z,14.81
2023-01-01T11:01:47.379Z,14.68
2023-01-01T11:02:48.526Z,14.93
2023-01-01T11:03:46.765Z,14.92
2023-01-01T11:04:49.721Z,14.87
2023-01-01T11:05:46.734Z,14.89
2023-01-01T11:06:46.697Z,14.85
2023-01-01T11:07:46.730Z,14.87
2023-01-01T11:08:46.759Z,14.89
2023-01-01T11:10:06.297Z,14.97
2023-01-01T11:10:46.733Z,14.99
2023-01-01T11:11:46.730Z,14.85
2023-01-01T11:13:16.718Z,14.82
2023-01-01T11:13:46.759Z,14.85
2023-01-01T11:14:46.730Z,14.78
2023-01-01T11:15:49.795Z,14.78
2023-01-01T11:16:46.825Z,14.81
2023-01-01T11:17:46.762Z,14.74
2023-01-01T11:18:46.791Z,14.81
2023-01-01T11:20:01.964Z,14.77
2023-01-01T11:20:46.799Z,14.81
2023-01-01T11:21:50.844Z,14.82
2023-01-01T11:22:46.755Z,14.86
2023-01-01T11:23:46.774Z,14.71
2023-01-01T11:24:46.753Z,14.78
2023-01-01T11:25:46.752Z,14.74
2023-01-01T11:26:56.664Z,14.73
2023-01-01T11:27:46.768Z,14.68
2023-01-01T11:28:46.832Z,14.73
2023-01-01T11:29:46.760Z,14.73
2023-01-01T11:30:47.034Z,14.74
2023-01-01T11:31:46.827Z,14.68
2023-01-01T11:32:50.489Z,14.78
2023-01-01T11:33:46.815Z,14.68
2023-01-01T11:34:46.775Z,14.73
2023-01-01T11:35:47.014Z,14.68
2023-01-01T11:36:46.806Z,14.71
2023-01-01T11:37:49.863Z,14.77
2023-01-01T11:38:46.847Z,14.86
2023-01-01T11:39:46.810Z,14.77
2023-01-01T11:40:46.778Z,14.79
2023-01-01T11:41:46.797Z,14.85
2023-01-01T11:42:46.793Z,14.85
2023-01-01T11:43:46.800Z,14.93
2023-01-01T11:44:46.863Z,14.87
2023-01-01T11:45:47.001Z,14.96
2023-01-01T11:46:46.872Z,14.93
2023-01-01T11:47:46.824Z,14.99
2023-01-01T11:48:49.603Z,15.02
2023-01-01T11:49:46.798Z,14.99
2023-01-01T11:50:54.441Z,15.08
2023-01-01T11:51:46.790Z,15.1
2023-01-01T11:52:46.829Z,15.15
2023-01-01T11:53:46.781Z,15.19
2023-01-01T11:54:46.820Z,15.18
2023-01-01T11:55:46.835Z,15.18
2023-01-01T11:56:46.786Z,15.15
2023-01-01T11:57:46.885Z,15.14
2023-01-01T11:58:46.867Z,15.23
2023-01-01T11:59:49.568Z,15.23
2023-01-01T12:00:46.789Z,15.17
2023-01-01T12:01:47.011Z,15.15
2023-01-01T12:02:46.971Z,15.14
2023-01-01T12:03:46.976Z,15.14
2023-01-01T12:04:46.850Z,15.19
2023-01-01T12:05:46.859Z,15.18
2023-01-01T12:06:46.835Z,15.27
2023-01-01T12:07:46.914Z,15.22
2023-01-01T12:08:46.863Z,15.23
2023-01-01T12:09:46.911Z,15.29
2023-01-01T12:10:47.248Z,15.3
2023-01-01T12:11:46.845Z,15.36
2023-01-01T12:12:46.902Z,15.3
2023-01-01T12:13:46.857Z,15.29
2023-01-01T12:14:46.904Z,15.35
2023-01-01T12:15:47.006Z,15.36
2023-01-01T12:16:46.849Z,15.35
2023-01-01T12:17:46.828Z,15.48
2023-01-01T12:18:46.891Z,15.36
2023-01-01T12:19:49.695Z,15.45
2023-01-01T12:20:46.858Z,15.44
2023-01-01T12:21:58.355Z,15.5
2023-01-01T12:22:46.835Z,15.43
2023-01-01T12:23:46.842Z,15.54
2023-01-01T12:24:46.876Z,15.6
2023-01-01T12:25:46.883Z,15.51
2023-01-01T12:26:46.864Z,15.57
2023-01-01T12:27:46.918Z,15.51
2023-01-01T12:28:46.874Z,15.55
2023-01-01T12:29:46.942Z,15.59
2023-01-01T12:30:46.874Z,15.57
2023-01-01T12:31:46.996Z,15.57
2023-01-01T12:32:46.860Z,15.7
2023-01-01T12:33:46.892Z,15.66
2023-01-01T12:34:46.915Z,15.69
2023-01-01T12:35:46.894Z,15.59
2023-01-01T12:36:46.901Z,15.62
2023-01-01T12:37:46.932Z,15.7
2023-01-01T12:38:46.872Z,15.65
2023-01-01T12:39:47.263Z,15.65
2023-01-01T12:40:46.903Z,15.66
2023-01-01T12:41:46.899Z,15.73
2023-01-01T12:42:49.715Z,15.73
2023-01-01T12:43:49.936Z,15.73
2023-01-01T12:44:46.915Z,15.7
2023-01-01T12:45:46.947Z,15.72
2023-01-01T12:46:47.110Z,15.67
2023-01-01T12:47:46.961Z,15.8
2023-01-01T12:48:46.878Z,15.81
2023-01-01T12:49:46.944Z,15.7
2023-01-01T12:51:01.563Z,15.85
2023-01-01T12:51:47.032Z,15.88
2023-01-01T12:52:46.873Z,15.85
2023-01-01T12:53:50.089Z,15.83
2023-01-01T12:54:46.920Z,15.81
2023-01-01T12:55:46.924Z,15.84
2023-01-01T12:56:46.895Z,15.75
2023-01-01T12:57:46.903Z,15.84
2023-01-01T12:58:49.737Z,15.84
2023-01-01T12:59:46.946Z,15.88
2023-01-01T13:00:46.907Z,15.9
2023-01-01T13:01:47.508Z,15.8
2023-01-01T13:02:47.350Z,15.88
2023-01-01T13:03:47.158Z,15.84
2023-01-01T13:04:49.696Z,15.81
2023-01-01T13:05:46.927Z,15.83
2023-01-01T13:06:46.922Z,15.72
2023-01-01T13:07:46.964Z,15.84
2023-01-01T13:08:46.955Z,15.85
2023-01-01T13:09:49.839Z,15.84
2023-01-01T13:10:46.952Z,15.8
2023-01-01T13:11:49.850Z,15.85
2023-01-01T13:12:46.953Z,15.72